createdAt,value
2022-08-21T00:00:43.919Z,16.20
2022-08-21T00:03:30.737Z,16.20
2022-08-21T00:06:16.774Z,16.20
2022-08-21T00:09:06.743Z,16.20
2022-08-21T00:11:53.038Z,16.20
2022-08-21T00:14:39.166Z,16.20
2022-08-21T00:17:25.211Z,16.20
2022-08-21T00:20:15.293Z,16.20
2022-08-21T00:23:02.365Z,16.20
2022-08-21T00:25:48.490Z,16.20
2022-08-21T00:28:34.831Z,16.20
2022-08-21T00:31:21.078Z,16.10
2022-08-21T00:34:08.426Z,16.10
2022-08-21T00:36:54.583Z,16.10
2022-08-21T00:39:40.650Z,16.00
2022-08-21T00:42:30.140Z,16.00
2022-08-21T00:45:16.233Z,16.00
2022-08-21T00:48:03.209Z,16.00
2022-08-21T00:50:58.413Z,16.00
2022-08-21T00:53:51.772Z,16.00
2022-08-21T00:56:40.664Z,15.90
2022-08-21T00:59:32.528Z,15.90
2022-08-21T01:02:20.982Z,15.90
2022-08-21T01:05:07.929Z,15.80
2022-08-21T01:07:58.275Z,15.80
2022-08-21T01:10:45.375Z,15.80
2022-08-21T01:13:35.186Z,15.80
2022-08-21T01:16:23.226Z,15.80
2022-08-21T01:19:09.956Z,15.70
2022-08-21T01:22:00.625Z,15.70
2022-08-21T01:24:46.514Z,15.60
2022-08-21T01:27:32.361Z,15.60
2022-08-21T01:30:23.056Z,15.60
2022-08-21T01:33:09.348Z,15.50
2022-08-21T01:35:55.445Z,15.50
2022-08-21T01:38:41.719Z,15.40
2022-08-21T01:41:27.966Z,15.40
2022-08-21T01:44:14.162Z,15.40
2022-08-21T01:47:03.680Z,15.40
2022-08-21T01:49:49.992Z,15.40
2022-08-21T01:52:36.496Z,15.40
2022-08-21T01:55:23.113Z,15.40
2022-08-21T01:58:09.270Z,15.30
2022-08-21T02:00:55.625Z,15.30
2022-08-21T02:03:42.599Z,15.30
2022-08-21T02:06:28.738Z,15.30
2022-08-21T02:09:15.764Z,15.20
2022-08-21T02:12:03.016Z,15.20
2022-08-21T02:14:49.379Z,15.20
2022-08-21T02:17:41.152Z,15.20
2022-08-21T02:20:33.127Z,15.30
2022-08-21T02:23:20.062Z,15.30
2022-08-21T02:26:14.044Z,15.30
2022-08-21T02:29:00.588Z,15.20
2022-08-21T02:31:47.062Z,15.30
2022-08-21T02:34:33.014Z,15.20
2022-08-21T02:37:19.544Z,15.20
2022-08-21T02:40:06.302Z,15.20
2022-08-21T02:42:53.104Z,15.20
2022-08-21T02:45:40.014Z,15.10
2022-08-21T02:48:27.539Z,15.10
2022-08-21T02:51:18.608Z,15.10
2022-08-21T02:54:04.705Z,15.00
2022-08-21T02:56:50.835Z,15.00
2022-08-21T02:59:37.153Z,15.10
2022-08-21T03:02:23.320Z,15.10
2022-08-21T03:05:12.802Z,15.10
2022-08-21T03:08:01.267Z,15.10
2022-08-21T03:10:50.236Z,15.00
2022-08-21T03:13:36.465Z,15.00
2022-08-21T03:16:22.774Z,15.00
2022-08-21T03:19:09.320Z,15.00
2022-08-21T03:21:55.385Z,15.00
2022-08-21T03:24:44.150Z,15.00
2022-08-21T03:27:31.826Z,15.00
2022-08-21T03:30:20.978Z,15.00
2022-08-21T03:33:07.130Z,15.00
2022-08-21T03:36:01.566Z,15.00
2022-08-21T03:38:47.656Z,15.00
2022-08-21T03:41:33.804Z,15.00
2022-08-21T03:44:20.662Z,14.90
2022-08-21T03:47:07.693Z,14.90
2022-08-21T03:49:55.118Z,14.90
2022-08-21T03:52:41.718Z,14.90
2022-08-21T03:55:28.273Z,14.80
2022-08-21T03:58:17.546Z,14.80
2022-08-21T04:01:07.189Z,14.80
2022-08-21T04:03:53.587Z,14.70
2022-08-21T04:06:39.427Z,14.70
2022-08-21T04:09:26.037Z,14.70
2022-08-21T04:12:12.159Z,14.70
2022-08-21T04:14:59.729Z,14.70
2022-08-21T04:17:45.981Z,14.70
2022-08-21T04:20:32.587Z,14.70
2022-08-21T04:23:24.318Z,14.70
2022-08-21T04:26:11.128Z,14.80
2022-08-21T04:28:58.441Z,14.70
2022-08-21T04:31:44.775Z,14.70
2022-08-21T04:34:30.766Z,14.70
2022-08-21T04:37:17.910Z,14.60
2022-08-21T04:40:06.133Z,14.60
2022-08-21T04:43:01.377Z,14.60
2022-08-21T04:45:50.129Z,14.60
2022-08-21T04:48:36.766Z,14.60
2022-08-21T04:51:33.893Z,14.60
2022-08-21T04:54:22.804Z,14.60
2022-08-21T04:57:10.861Z,14.60
2022-08-21T04:59:57.338Z,14.60
2022-08-21T05:02:43.409Z,14.60
2022-08-21T05:05:30.342Z,14.50
2022-08-21T05:08:18.233Z,14.50
2022-08-21T05:11:05.461Z,14.50
2022-08-21T05:13:54.959Z,14.50
2022-08-21T05:16:44.879Z,14.50
2022-08-21T05:19:31.087Z,14.60
2022-08-21T05:22:21.937Z,14.60
2022-08-21T05:25:10.885Z,14.70
2022-08-21T05:27:58.190Z,14.80
2022-08-21T05:30:47.127Z,14.90
2022-08-21T05:33:33.023Z,15.00
2022-08-21T05:36:22.121Z,15.00
2022-08-21T05:39:08.159Z,15.10
2022-08-21T05:41:53.959Z,15.10
2022-08-21T05:44:40.138Z,15.20
2022-08-21T05:47:26.286Z,15.30
2022-08-21T05:50:12.824Z,15.30
2022-08-21T05:53:04.270Z,15.40
2022-08-21T05:55:54.060Z,15.50
2022-08-21T05:58:40.026Z,15.50
2022-08-21T06:01:26.263Z,15.60
2022-08-21T06:04:13.230Z,15.60
2022-08-21T06:06:59.121Z,15.70
2022-08-21T06:09:45.124Z,15.80
2022-08-21T06:12:31.157Z,15.90
2022-08-21T06:15:17.129Z,16.00
2022-08-21T06:18:03.790Z,16.00
2022-08-21T06:20:49.910Z,16.10
2022-08-21T06:23:36.693Z,16.20
2022-08-21T06:26:24.637Z,16.20
2022-08-21T06:29:13.480Z,16.30
2022-08-21T06:31:59.402Z,16.30
2022-08-21T06:34:45.257Z,16.40
2022-08-21T06:37:31.292Z,16.40
2022-08-21T06:40:17.621Z,16.50
2022-08-21T06:43:16.229Z,16.50
2022-08-21T06:46:03.064Z,16.50
2022-08-21T06:48:48.888Z,16.60
2022-08-21T06:51:35.048Z,16.60
2022-08-21T06:54:21.082Z,16.70
2022-08-21T06:57:08.265Z,16.80
2022-08-21T06:59:54.219Z,16.80
2022-08-21T07:02:41.550Z,16.90
2022-08-21T07:05:29.934Z,17.00
2022-08-21T07:08:16.638Z,17.00
2022-08-21T07:11:04.906Z,17.20
2022-08-21T07:13:53.658Z,17.20
2022-08-21T07:16:39.946Z,17.30
2022-08-21T07:19:29.173Z,17.40
2022-08-21T07:22:18.193Z,17.50
2022-08-21T07:25:05.397Z,17.50
2022-08-21T07:27:51.756Z,17.60
2022-08-21T07:30:37.806Z,17.70
2022-08-21T07:33:25.774Z,17.80
2022-08-21T07:36:12.477Z,17.90
2022-08-21T07:38:58.797Z,17.90
2022-08-21T07:41:44.784Z,18.10
2022-08-21T07:44:31.277Z,18.10
2022-08-21T07:47:17.497Z,18.20
2022-08-21T07:50:24.236Z,18.30
2022-08-21T07:53:10.601Z,18.40
2022-08-21T07:55:58.901Z,18.40
2022-08-21T07:58:45.150Z,18.50
2022-08-21T08:01:31.653Z,18.50
2022-08-21T08:04:19.710Z,18.60
2022-08-21T08:07:09.374Z,18.70
2022-08-21T08:09:55.544Z,18.70
2022-08-21T08:12:43.047Z,18.80
2022-08-21T08:15:29.385Z,18.80
2022-08-21T08:18:15.264Z,18.90
2022-08-21T08:21:01.759Z,19.00
2022-08-21T08:23:48.249Z,19.10
2022-08-21T08:26:34.180Z,19.20
2022-08-21T08:29:20.204Z,19.20
2022-08-21T08:32:08.243Z,19.20
2022-08-21T08:34:54.202Z,19.40
2022-08-21T08:37:46.732Z,19.50
2022-08-21T08:41:13.873Z,19.50
2022-08-21T08:44:04.963Z,19.50
2022-08-21T08:46:52.458Z,19.60
2022-08-21T08:50:25.002Z,19.80
2022-08-21T08:53:28.769Z,19.90
2022-08-21T08:56:14.818Z,20.00
2022-08-21T08:59:20.951Z,20.10
2022-08-21T09:02:09.432Z,20.10
2022-08-21T09:04:55.949Z,20.20
2022-08-21T09:08:09.486Z,20.30
2022-08-21T09:11:02.093Z,20.40
2022-08-21T09:14:05.630Z,20.40
2022-08-21T09:17:30.015Z,20.50
2022-08-21T09:20:36.265Z,20.50
2022-08-21T09:23:45.036Z,20.70
2022-08-21T09:26:43.033Z,20.80
2022-08-21T09:29:34.089Z,21.00
2022-08-21T09:32:23.240Z,21.00
2022-08-21T09:35:25.053Z,21.10
2022-08-21T09:38:11.301Z,21.30
2022-08-21T09:41:01.351Z,21.50
2022-08-21T09:43:54.581Z,21.70
2022-08-21T09:46:52.336Z,21.70
2022-08-21T09:49:42.045Z,21.80
2022-08-21T09:52:28.173Z,22.00
2022-08-21T09:55:47.196Z,22.10
2022-08-21T09:58:36.414Z,22.10
2022-08-21T10:01:26.045Z,22.00
2022-08-21T10:04:13.173Z,22.00
2022-08-21T10:07:10.861Z,21.90
2022-08-21T10:10:03.144Z,21.80
2022-08-21T10:13:15.964Z,21.70
2022-08-21T10:16:10.443Z,21.60
2022-08-21T10:19:09.815Z,21.70
2022-08-21T10:22:46.735Z,21.80
2022-08-21T10:26:12.812Z,21.80
2022-08-21T10:29:08.978Z,22.10
2022-08-21T10:32:04.586Z,22.60
2022-08-21T10:35:08.015Z,23.20
2022-08-21T10:38:48.143Z,23.70
2022-08-21T10:41:46.623Z,24.00
2022-08-21T10:44:58.158Z,24.40
2022-08-21T10:47:58.058Z,24.60
2022-08-21T10:51:17.417Z,24.40
2022-08-21T10:54:13.809Z,24.10
2022-08-21T10:57:06.413Z,23.60
2022-08-21T11:00:11.440Z,23.50
2022-08-21T11:03:33.005Z,23.50
2022-08-21T11:06:26.197Z,23.70
2022-08-21T11:09:14.252Z,23.90
2022-08-21T11:12:12.442Z,24.10
2022-08-21T11:15:28.718Z,24.20
2022-08-21T11:18:35.377Z,24.40
2022-08-21T11:21:45.649Z,24.60
2022-08-21T11:25:03.101Z,24.70
2022-08-21T11:27:59.600Z,24.50
2022-08-21T11:31:03.284Z,24.40
2022-08-21T11:34:04.780Z,24.40
2022-08-21T11:37:22.640Z,24.30
2022-08-21T11:40:36.421Z,24.50
2022-08-21T11:43:40.497Z,24.60
2022-08-21T11:46:35.197Z,24.70
2022-08-21T11:49:50.689Z,24.40
2022-08-21T11:52:51.467Z,24.30
2022-08-21T11:55:45.083Z,24.20
2022-08-21T11:58:46.355Z,24.00
2022-08-21T12:01:38.853Z,23.90
2022-08-21T12:04:35.502Z,23.70
2022-08-21T12:07:32.901Z,23.80
2022-08-21T12:10:23.005Z,24.00
2022-08-21T12:13:40.648Z,24.20
2022-08-21T12:16:39.624Z,24.30
2022-08-21T12:19:25.644Z,24.50
2022-08-21T12:22:15.802Z,24.60
2022-08-21T12:25:09.355Z,24.70
2022-08-21T12:28:07.333Z,24.90
2022-08-21T12:30:57.873Z,24.90
2022-08-21T12:34:02.106Z,25.10
2022-08-21T12:36:57.028Z,25.20
2022-08-21T12:39:47.575Z,25.40
2022-08-21T12:42:44.011Z,25.50
2022-08-21T12:45:48.020Z,25.60
2022-08-21T12:48:47.482Z,25.60
2022-08-21T12:51:47.652Z,25.60
2022-08-21T12:54:41.455Z,25.60
2022-08-21T12:57:30.772Z,25.60
2022-08-21T13:00:23.676Z,25.70
2022-08-21T13:03:10.082Z,25.80
2022-08-21T13:05:56.336Z,25.80
2022-08-21T13:08:47.130Z,25.70
2022-08-21T13:11:34.242Z,25.60
2022-08-21T13:14:45.808Z,25.40
2022-08-21T13:17:38.763Z,25.30
2022-08-21T13:20:39.118Z,25.30
2022-08-21T13:23:30.410Z,25.20
2022-08-21T13:26:22.814Z,25.10
2022-08-21T13:29:14.306Z,25.20
2022-08-21T13:32:07.668Z,25.30
2022-08-21T13:34:53.981Z,25.10
2022-08-21T13:37:42.989Z,25.00
2022-08-21T13:40:53.928Z,25.00
2022-08-21T13:43:47.983Z,25.20
2022-08-21T13:46:36.642Z,25.40
2022-08-21T13:49:33.706Z,25.60
2022-08-21T13:52:24.706Z,25.70
2022-08-21T13:55:17.021Z,25.90
2022-08-21T13:58:05.621Z,25.90
2022-08-21T14:00:52.609Z,25.90
2022-08-21T14:03:45.626Z,25.70
2022-08-21T14:06:37.092Z,25.60
2022-08-21T14:09:27.844Z,25.50
2022-08-21T14:13:00.067Z,25.50
2022-08-21T14:15:58.508Z,25.50
2022-08-21T14:19:04.732Z,25.40
2022-08-21T14:21:51.897Z,25.40
2022-08-21T14:24:41.037Z,25.30
2022-08-21T14:27:27.721Z,25.20
2022-08-21T14:30:26.970Z,25.10
2022-08-21T14:33:19.449Z,25.20
2022-08-21T14:36:06.061Z,25.20
2022-08-21T14:38:53.018Z,25.10
2022-08-21T14:41:39.325Z,25.00
2022-08-21T14:44:25.685Z,24.70
2022-08-21T14:47:12.253Z,24.60
2022-08-21T14:49:58.249Z,24.60
2022-08-21T14:52:46.359Z,24.60
2022-08-21T14:55:56.221Z,24.60
2022-08-21T14:58:49.642Z,24.70
2022-08-21T15:01:38.032Z,24.70
2022-08-21T15:04:24.538Z,24.70
2022-08-21T15:07:10.730Z,24.70
2022-08-21T15:09:57.393Z,24.70
2022-08-21T15:12:43.772Z,24.70
2022-08-21T15:15:39.365Z,24.70
2022-08-21T15:18:27.982Z,24.70
2022-08-21T15:21:14.297Z,24.60
2022-08-21T15:24:00.597Z,24.50
2022-08-21T15:26:47.502Z,24.50
2022-08-21T15:29:34.136Z,24.50
2022-08-21T15:32:23.947Z,24.50
2022-08-21T15:35:10.313Z,24.50
2022-08-21T15:37:56.449Z,24.50
2022-08-21T15:40:47.894Z,24.50
2022-08-21T15:43:43.877Z,24.40
2022-08-21T15:46:29.806Z,24.30
2022-08-21T15:49:15.906Z,24.30
2022-08-21T15:52:02.393Z,24.30
2022-08-21T15:54:48.393Z,24.30
2022-08-21T15:57:36.388Z,24.30
2022-08-21T16:00:25.357Z,24.20
2022-08-21T16:03:17.515Z,24.20
2022-08-21T16:06:04.191Z,24.20
2022-08-21T16:08:50.576Z,24.20
2022-08-21T16:11:36.723Z,24.20
2022-08-21T16:14:22.764Z,24.20
2022-08-21T16:17:09.599Z,24.10
2022-08-21T16:19:56.674Z,24.10
2022-08-21T16:22:44.619Z,24.10
2022-08-21T16:25:34.087Z,24.00
2022-08-21T16:28:21.773Z,24.00
2022-08-21T16:31:09.059Z,24.00
2022-08-21T16:33:58.006Z,23.90
2022-08-21T16:36:44.868Z,23.90
2022-08-21T16:39:31.002Z,23.80
2022-08-21T16:42:22.840Z,23.90
2022-08-21T16:45:11.989Z,23.80
2022-08-21T16:47:58.285Z,23.80
2022-08-21T16:50:50.392Z,23.80
2022-08-21T16:53:37.985Z,23.70
2022-08-21T16:56:24.229Z,23.70
2022-08-21T16:59:11.874Z,23.60
2022-08-21T17:01:58.013Z,23.60
2022-08-21T17:04:43.860Z,23.60
2022-08-21T17:07:32.149Z,23.50
2022-08-21T17:10:21.938Z,23.50
2022-08-21T17:13:09.768Z,23.50
2022-08-21T17:15:56.865Z,23.50
2022-08-21T17:18:43.047Z,23.50
2022-08-21T17:21:29.534Z,23.40
2022-08-21T17:24:15.760Z,23.40
2022-08-21T17:27:03.664Z,23.30
2022-08-21T17:29:50.629Z,23.30
2022-08-21T17:32:38.236Z,23.30
2022-08-21T17:35:24.989Z,23.20
2022-08-21T17:38:14.764Z,23.10
2022-08-21T17:41:01.848Z,23.10
2022-08-21T17:43:48.341Z,23.00
2022-08-21T17:46:34.602Z,22.90
2022-08-21T17:49:20.793Z,22.90
2022-08-21T17:52:07.727Z,22.80
2022-08-21T17:54:53.914Z,22.80
2022-08-21T17:57:41.665Z,22.70
2022-08-21T18:00:29.643Z,22.60
2022-08-21T18:03:19.540Z,22.50
2022-08-21T18:06:06.900Z,22.40
2022-08-21T18:08:53.281Z,22.30
2022-08-21T18:11:42.156Z,22.20
2022-08-21T18:14:32.425Z,22.10
2022-08-21T18:17:21.266Z,22.00
2022-08-21T18:20:09.010Z,21.80
2022-08-21T18:22:55.188Z,21.60
2022-08-21T18:25:48.839Z,21.40
2022-08-21T18:28:38.365Z,21.30
2022-08-21T18:31:24.726Z,21.20
2022-08-21T18:34:20.329Z,21.10
2022-08-21T18:37:07.656Z,20.90
2022-08-21T18:39:53.889Z,20.80
2022-08-21T18:42:53.054Z,20.80
2022-08-21T18:45:42.294Z,20.70
2022-08-21T18:48:29.465Z,20.50
2022-08-21T18:51:15.536Z,20.30
2022-08-21T18:54:02.119Z,20.20
2022-08-21T18:56:50.532Z,20.10
2022-08-21T18:59:40.126Z,20.10
2022-08-21T19:02:29.089Z,20.10
2022-08-21T19:05:17.532Z,20.10
2022-08-21T19:08:04.397Z,20.00
2022-08-21T19:10:54.733Z,19.90
2022-08-21T19:13:41.172Z,19.70
2022-08-21T19:16:27.641Z,19.60
2022-08-21T19:19:15.378Z,19.50
2022-08-21T19:22:01.702Z,19.40
2022-08-21T19:24:49.910Z,19.40
2022-08-21T19:27:37.397Z,19.30
2022-08-21T19:30:23.825Z,19.30
2022-08-21T19:33:23.148Z,19.20
2022-08-21T19:36:10.676Z,19.10
2022-08-21T19:38:57.102Z,19.00
2022-08-21T19:41:45.959Z,18.90
2022-08-21T19:44:39.814Z,18.80
2022-08-21T19:47:29.499Z,18.60
2022-08-21T19:50:17.890Z,18.50
2022-08-21T19:53:11.987Z,18.50
2022-08-21T19:55:58.333Z,18.50
2022-08-21T19:58:49.958Z,18.50
2022-08-21T20:01:36.197Z,18.50
2022-08-21T20:04:27.408Z,18.50
2022-08-21T20:07:14.129Z,18.40
2022-08-21T20:10:02.258Z,18.30
2022-08-21T20:12:50.386Z,18.20
2022-08-21T20:15:37.199Z,18.10
2022-08-21T20:18:25.703Z,18.10
2022-08-21T20:21:13.351Z,18.00
2022-08-21T20:23:59.562Z,18.10
2022-08-21T20:26:49.307Z,18.10
2022-08-21T20:32:44.521Z,18.20
2022-08-21T20:35:31.616Z,18.30
2022-08-21T20:38:18.842Z,18.30
2022-08-21T20:41:09.975Z,18.20
2022-08-21T20:44:12.781Z,18.10
2022-08-21T20:47:00.713Z,17.90
2022-08-21T20:50:02.678Z,17.80
2022-08-21T20:52:53.612Z,17.70
2022-08-21T20:55:46.629Z,17.60
2022-08-21T20:58:48.586Z,17.60
2022-08-21T21:01:35.649Z,17.60
2022-08-21T21:04:28.173Z,17.60
2022-08-21T21:07:20.473Z,17.60
2022-08-21T21:10:15.865Z,17.60
2022-08-21T21:13:20.955Z,17.60
2022-08-21T21:16:15.577Z,17.60
2022-08-21T21:19:27.813Z,17.70
2022-08-21T21:22:26.395Z,17.70
2022-08-21T21:25:22.555Z,17.70
2022-08-21T21:28:23.073Z,17.50
2022-08-21T21:31:10.666Z,17.50
2022-08-21T21:33:59.121Z,17.50
2022-08-21T21:36:56.759Z,17.40
2022-08-21T21:39:51.913Z,17.50
2022-08-21T21:42:41.454Z,17.50
2022-08-21T21:45:38.030Z,17.40
2022-08-21T21:48:29.958Z,17.40
2022-08-21T21:55:18.255Z,17.40
2022-08-21T21:58:30.812Z,17.40
2022-08-21T22:02:01.808Z,17.30
2022-08-21T22:05:03.336Z,17.30
2022-08-21T22:07:57.905Z,17.30
2022-08-21T22:11:28.562Z,17.30
2022-08-21T22:14:18.718Z,17.30
2022-08-21T22:17:46.634Z,17.20
2022-08-21T22:21:05.273Z,17.20
2022-08-21T22:23:57.390Z,17.20
2022-08-21T22:26:49.447Z,17.10
2022-08-21T22:29:46.352Z,17.10
2022-08-21T22:32:42.852Z,17.10
2022-08-21T22:35:33.341Z,17.00
2022-08-21T22:38:39.646Z,17.00
2022-08-21T22:41:29.799Z,16.90
2022-08-21T22:44:22.782Z,16.80
2022-08-21T22:47:08.985Z,16.60
2022-08-21T22:49:59.621Z,16.50
2022-08-21T22:52:52.763Z,16.40
2022-08-21T22:55:55.402Z,16.20
2022-08-21T22:58:59.665Z,16.20
2022-08-21T23:01:46.142Z,16.30
2022-08-21T23:04:46.870Z,16.30
2022-08-21T23:07:44.352Z,16.40
2022-08-21T23:10:39.593Z,16.50
2022-08-21T23:13:30.207Z,16.60
2022-08-21T23:16:53.913Z,16.60
2022-08-21T23:20:11.797Z,16.60
2022-08-21T23:23:23.649Z,16.50
2022-08-21T23:26:32.529Z,16.40
2022-08-21T23:29:58.513Z,16.40
2022-08-21T23:33:03.089Z,16.40
2022-08-21T23:36:31.527Z,16.40
2022-08-21T23:39:50.140Z,16.40
2022-08-21T23:42:55.694Z,16.20
2022-08-21T23:45:59.760Z,16.10
2022-08-21T23:48:59.981Z,16.00
2022-08-21T23:52:07.465Z,16.00
2022-08-21T23:54:57.158Z,15.80
2022-08-21T23:58:01.326Z,15.80
